Terminal Aerodrome Forecast
Issued by NWS Melbourne, FL

Home | Current Version | Previous Version | Text Only | Print | Product List | Glossary On
Versions: 1 2 3 4 5 6 7 8 9 10 11 12 13
251
FTUS42 KMLB 101135
TAFMLB
TAF
KMLB 101135Z 1012/1112 32009KT P6SM BKN250
     FM101400 29017G24KT P6SM SKC
     FM110100 29006KT P6SM SKC=

USA.gov is the U.S. government's official web portal to all federal, state and local government web resources and services.